createdAt,value
2023-04-23T00:00:54.925Z,99290.47
2023-04-23T00:05:58.056Z,99301.59
2023-04-23T00:11:02.702Z,99300.78
2023-04-23T00:16:05.881Z,99313.63
2023-04-23T00:21:09.353Z,99292.19
2023-04-23T00:26:11.929Z,99312.78
2023-04-23T00:31:14.605Z,99321.38
2023-04-23T00:36:17.157Z,99320.50
2023-04-23T00:41:19.801Z,99311.06
2023-04-23T00:46:22.925Z,99323.03
2023-04-23T00:51:26.141Z,99326.50
2023-04-23T00:56:29.084Z,99331.63
2023-04-23T01:01:33.438Z,99325.63
2023-04-23T01:06:36.065Z,99326.47
2023-04-23T01:11:42.565Z,99332.44
2023-04-23T01:16:45.668Z,99325.56
2023-04-23T01:21:50.613Z,99305.81
2023-04-23T01:26:53.784Z,99340.13
2023-04-23T01:31:57.519Z,99334.13
2023-04-23T01:37:00.950Z,99329.84
2023-04-23T01:42:04.148Z,99342.72
2023-04-23T01:47:07.313Z,99335.03
2023-04-23T01:52:10.130Z,99338.47
2023-04-23T01:57:13.030Z,99340.22
2023-04-23T02:02:16.325Z,99341.94
2023-04-23T02:07:19.326Z,99341.91
2023-04-23T02:12:22.296Z,99328.19
2023-04-23T02:17:25.059Z,99341.63
2023-04-23T02:22:28.395Z,99330.41
2023-04-23T02:27:31.054Z,99328.34
2023-04-23T02:32:33.721Z,99334.00
2023-04-23T02:37:37.471Z,99303.47
2023-04-23T02:42:41.250Z,99329.94
2023-04-23T02:47:45.954Z,99339.44
2023-04-23T02:52:49.859Z,99347.19
2023-04-23T02:57:52.749Z,99352.56
2023-04-23T03:02:55.977Z,99364.81
2023-04-23T03:07:58.751Z,99367.19
2023-04-23T03:13:02.052Z,99362.19
2023-04-23T03:18:08.258Z,99375.19
2023-04-23T03:23:12.336Z,99375.41
2023-04-23T03:28:15.682Z,99382.13
2023-04-23T03:33:18.438Z,99394.22
2023-04-23T03:38:21.291Z,99392.44
2023-04-23T03:43:26.026Z,99396.59
2023-04-23T03:48:54.975Z,99401.78
2023-04-23T03:54:02.545Z,99417.84
2023-04-23T03:59:11.184Z,99409.03
2023-04-23T04:04:14.470Z,99377.28
2023-04-23T04:09:17.376Z,99414.31
2023-04-23T04:14:21.033Z,99398.63
2023-04-23T04:19:23.938Z,99386.38
2023-04-23T04:24:27.533Z,99419.09
2023-04-23T04:29:31.241Z,99422.56
2023-04-23T04:34:33.884Z,99396.19
2023-04-23T04:39:36.658Z,99426.72
2023-04-23T04:44:39.442Z,99428.22
2023-04-23T04:49:42.224Z,99425.94
2023-04-23T04:54:45.033Z,99431.75
2023-04-23T04:59:47.824Z,99431.53
2023-04-23T05:04:50.502Z,99443.56
2023-04-23T05:09:55.570Z,99438.72
2023-04-23T05:14:58.188Z,99443.22
2023-04-23T05:20:00.873Z,99435.88
2023-04-23T05:25:04.392Z,99420.56
2023-04-23T05:30:09.612Z,99433.56
2023-04-23T05:35:12.426Z,99445.00
2023-04-23T05:40:15.143Z,99436.53
2023-04-23T05:45:17.825Z,99445.34
2023-04-23T05:50:21.370Z,99451.53
2023-04-23T05:55:24.139Z,99446.22
2023-04-23T06:00:27.042Z,99446.72
2023-04-23T06:05:29.992Z,99450.72
2023-04-23T06:10:32.814Z,99464.31
2023-04-23T06:15:35.439Z,99448.72
2023-04-23T06:20:38.258Z,99462.22
2023-04-23T06:25:40.940Z,99474.13
2023-04-23T06:30:43.523Z,99480.84
2023-04-23T06:35:47.008Z,99478.16
2023-04-23T06:40:49.889Z,99469.31
2023-04-23T06:45:52.528Z,99482.22
2023-04-23T06:50:55.392Z,99453.25
2023-04-23T06:55:58.000Z,99488.72
2023-04-23T07:01:04.367Z,99493.03
2023-04-23T07:06:10.410Z,99494.91
2023-04-23T07:11:13.134Z,99485.88
2023-04-23T07:16:15.806Z,99466.38
2023-04-23T07:21:18.421Z,99487.09
2023-04-23T07:26:21.300Z,99503.91
2023-04-23T07:31:24.043Z,99497.41
2023-04-23T07:36:28.976Z,99499.56
2023-04-23T07:41:32.445Z,99483.19
2023-04-23T07:46:35.041Z,99489.72
2023-04-23T07:51:38.074Z,99488.94
2023-04-23T07:56:43.115Z,99480.41
2023-04-23T08:01:46.706Z,99462.66
2023-04-23T08:06:49.501Z,99477.69
2023-04-23T08:11:52.693Z,99488.25
2023-04-23T08:16:55.732Z,99489.66
2023-04-23T08:22:01.247Z,99478.09
2023-04-23T08:27:03.977Z,99488.13
2023-04-23T08:32:06.706Z,99489.78
2023-04-23T08:37:16.546Z,99489.38
2023-04-23T08:42:35.108Z,99479.34
2023-04-23T08:47:45.097Z,99441.13
2023-04-23T08:52:52.759Z,99466.50
2023-04-23T08:57:55.875Z,99468.34
2023-04-23T09:03:03.034Z,99469.91
2023-04-23T09:08:10.624Z,99450.91
2023-04-23T09:13:16.822Z,99469.63
2023-04-23T09:18:20.397Z,99462.28
2023-04-23T09:23:23.644Z,99467.63
2023-04-23T09:28:38.856Z,99464.41
2023-04-23T09:33:41.698Z,99459.13
2023-04-23T09:38:44.381Z,99433.56
2023-04-23T09:43:48.731Z,99446.44
2023-04-23T09:48:52.768Z,99422.19
2023-04-23T09:53:55.327Z,99402.78
2023-04-23T09:58:57.883Z,99430.47
2023-04-23T10:04:00.829Z,99410.94
2023-04-23T10:09:04.147Z,99420.56
2023-04-23T10:14:10.529Z,99406.44
2023-04-23T10:19:21.166Z,99400.78
2023-04-23T10:24:30.435Z,99345.63
2023-04-23T10:29:35.270Z,99425.25
2023-04-23T10:34:40.658Z,99423.22
2023-04-23T10:39:45.164Z,99421.84
2023-04-23T10:49:53.968Z,99412.00
2023-04-23T10:55:02.306Z,99417.72
2023-04-23T11:00:06.724Z,99402.78
2023-04-23T11:05:12.508Z,99402.56
2023-04-23T11:10:15.836Z,99415.63
2023-04-23T11:15:19.543Z,99407.66
2023-04-23T11:20:24.296Z,99398.22
2023-04-23T11:25:29.005Z,99398.03
2023-04-23T11:30:32.148Z,99390.97
2023-04-23T11:35:40.694Z,99389.66
2023-04-23T11:40:46.911Z,99371.03
2023-04-23T11:45:49.620Z,99397.16
2023-04-23T11:50:52.905Z,99396.75
2023-04-23T11:55:55.418Z,99390.19
2023-04-23T12:00:59.773Z,99383.47
2023-04-23T12:06:02.536Z,99382.00
2023-04-23T12:11:06.779Z,99377.66
2023-04-23T12:16:10.974Z,99388.78
2023-04-23T12:21:14.916Z,99359.59
2023-04-23T12:26:21.435Z,99360.03
2023-04-23T12:31:26.450Z,99375.91
2023-04-23T12:36:32.652Z,99377.91
2023-04-23T12:41:35.265Z,99363.25
2023-04-23T12:46:37.841Z,99356.94
2023-04-23T12:51:40.504Z,99363.34
2023-04-23T12:56:43.249Z,99361.88
2023-04-23T13:01:46.025Z,99366.66
2023-04-23T13:06:48.966Z,99363.13
2023-04-23T13:11:51.881Z,99354.56
2023-04-23T13:16:54.468Z,99356.28
2023-04-23T13:21:57.194Z,99359.75
2023-04-23T13:27:01.826Z,99336.31
2023-04-23T13:32:06.397Z,99344.84
2023-04-23T13:37:09.417Z,99361.13
2023-04-23T13:42:12.069Z,99353.59
2023-04-23T13:47:14.617Z,99338.75
2023-04-23T13:52:17.412Z,99356.72
2023-04-23T13:57:20.248Z,99348.16
2023-04-23T14:02:24.298Z,99346.44
2023-04-23T14:07:27.059Z,99349.66
2023-04-23T14:12:29.803Z,99345.53
2023-04-23T14:17:32.431Z,99359.69
2023-04-23T14:22:35.603Z,99362.53
2023-04-23T14:27:44.526Z,99353.72
2023-04-23T14:32:50.021Z,99354.91
2023-04-23T14:37:53.301Z,99345.38
2023-04-23T14:43:01.881Z,99348.72
2023-04-23T14:48:11.215Z,99333.06
2023-04-23T14:53:13.929Z,99340.38
2023-04-23T14:58:16.507Z,99336.44
2023-04-23T15:03:19.478Z,99340.75
2023-04-23T15:08:22.198Z,99338.31
2023-04-23T15:13:46.886Z,99345.56
2023-04-23T15:18:49.468Z,99348.97
2023-04-23T15:23:54.205Z,99350.50
2023-04-23T15:28:58.687Z,99354.97
2023-04-23T15:34:01.753Z,99357.06
2023-04-23T15:39:04.573Z,99353.84
2023-04-23T15:44:10.916Z,99352.78
2023-04-23T15:49:13.811Z,99361.13
2023-04-23T15:54:16.524Z,99370.34
2023-04-23T15:59:19.096Z,99363.22
2023-04-23T16:04:22.351Z,99358.81
2023-04-23T16:09:25.293Z,99366.06
2023-04-23T16:14:27.996Z,99365.72
2023-04-23T16:19:30.790Z,99372.75
2023-04-23T16:24:34.204Z,99374.13
2023-04-23T16:29:38.040Z,99355.28
2023-04-23T16:34:41.101Z,99371.63
2023-04-23T16:39:44.101Z,99374.94
2023-04-23T16:44:46.973Z,99373.03
2023-04-23T16:49:49.572Z,99389.78
2023-04-23T16:54:52.515Z,99368.88
2023-04-23T16:59:55.051Z,99400.34
2023-04-23T17:04:58.195Z,99404.59
2023-04-23T17:10:01.026Z,99405.22
2023-04-23T17:15:06.831Z,99401.56
2023-04-23T17:20:09.602Z,99413.19
2023-04-23T17:25:12.217Z,99418.25
2023-04-23T17:30:15.040Z,99412.69
2023-04-23T17:35:17.690Z,99433.69
2023-04-23T17:40:20.884Z,99436.69
2023-04-23T17:45:23.940Z,99438.91
2023-04-23T17:50:28.394Z,99446.19
2023-04-23T17:55:33.074Z,99445.13
2023-04-23T18:00:37.286Z,99440.47
2023-04-23T18:05:40.252Z,99449.59
2023-04-23T18:10:45.435Z,99448.28
2023-04-23T18:15:50.998Z,99451.22
2023-04-23T18:20:53.624Z,99444.63
2023-04-23T18:25:56.983Z,99462.00
2023-04-23T18:31:02.715Z,99468.44
2023-04-23T18:36:24.902Z,99448.09
2023-04-23T18:41:30.756Z,99461.31
2023-04-23T18:46:33.827Z,99464.22
2023-04-23T18:51:45.881Z,99465.94
2023-04-23T18:56:48.771Z,99463.47
2023-04-23T19:01:51.817Z,99464.47
2023-04-23T19:06:54.382Z,99454.69
2023-04-23T19:11:57.388Z,99471.28
2023-04-23T19:17:00.028Z,99477.25
2023-04-23T19:22:03.951Z,99475.03
2023-04-23T19:27:07.224Z,99470.69
2023-04-23T19:32:09.786Z,99479.22
2023-04-23T19:37:12.547Z,99474.78
2023-04-23T19:42:15.272Z,99420.06
2023-04-23T19:47:18.160Z,99474.78
2023-04-23T19:52:23.442Z,99476.69
2023-04-23T19:57:26.189Z,99474.47
2023-04-23T20:02:29.029Z,99475.88
2023-04-23T20:07:31.631Z,99443.31
2023-04-23T20:12:36.898Z,99473.28
2023-04-23T20:17:40.305Z,99478.47
2023-04-23T20:22:42.864Z,99473.66
2023-04-23T20:27:45.576Z,99481.59
2023-04-23T20:32:48.346Z,99464.53
2023-04-23T20:37:52.901Z,99474.78
2023-04-23T20:42:58.578Z,99479.19
2023-04-23T20:48:02.630Z,99479.25
2023-04-23T20:53:05.633Z,99469.84
2023-04-23T20:58:08.289Z,99450.38
2023-04-23T21:03:11.403Z,99460.03
2023-04-23T21:08:14.385Z,99450.72
2023-04-23T21:13:17.225Z,99489.44
2023-04-23T21:18:20.023Z,99494.56
2023-04-23T21:23:22.557Z,99489.44
2023-04-23T21:28:25.222Z,99474.91
2023-04-23T21:33:27.798Z,99498.28
2023-04-23T21:38:30.375Z,99495.78
2023-04-23T21:43:35.600Z,99506.06
2023-04-23T21:48:38.307Z,99502.75
2023-04-23T21:53:41.065Z,99502.84
2023-04-23T21:58:44.843Z,99494.31
2023-04-23T22:03:48.007Z,99508.75
2023-04-23T22:08:52.413Z,99498.38
2023-04-23T22:13:55.006Z,99498.53
2023-04-23T22:18:58.003Z,99502.84
2023-04-23T22:24:00.787Z,99500.41
2023-04-23T22:29:04.111Z,99510.84
2023-04-23T22:34:06.782Z,99510.00
2023-04-23T22:39:10.829Z,99504.97
2023-04-23T22:44:13.511Z,99507.53
2023-04-23T22:49:18.388Z,99511.97
2023-04-23T22:54:21.177Z,99511.94
2023-04-23T22:59:24.607Z,99517.16
2023-04-23T23:04:27.361Z,99520.56
2023-04-23T23:09:29.998Z,99512.88
2023-04-23T23:14:34.038Z,99519.88
2023-04-23T23:19:36.666Z,99519.91
2023-04-23T23:24:39.380Z,99518.97
2023-04-23T23:29:45.268Z,99519.72
2023-04-23T23:34:47.953Z,99494.00
2023-04-23T23:39:50.584Z,99513.75
2023-04-23T23:44:53.138Z,99511.16
2023-04-23T23:49:55.935Z,99510.28
2023-04-23T23:54:58.701Z,99523.22
